Time;durP1;ratioP1;P1;durP2;ratioP2;P2;SDS_P1;SDS_P2;PMS_P1;PMS_P2;Temp;Humidity;BMP_temperature;BMP_pressure;BME280_temperature;BME280_humidity;BME280_pressure;Samples;Min_cycle;Max_cycle;Signal;HPM_P1;HPM_P2
2021/03/20 00:01:37;;;;;;;29.63;17.00;;;;;;;-4.77;70.82;96208.03;5009857;28;20064;-54
2021/03/20 00:04:05;;;;;;;30.55;16.38;;;;;;;-4.73;70.67;96224.75;5019348;28;20536;-54
2021/03/20 00:06:39;;;;;;;31.25;17.10;;;;;;;-4.78;70.98;96227.00;5017735;28;20052;-54
2021/03/20 00:09:13;;;;;;;24.00;16.70;;;;;;;-4.78;70.88;96227.00;4995860;28;20540;-54
2021/03/20 00:11:43;;;;;;;29.85;17.77;;;;;;;-4.76;71.42;96229.41;5011446;28;20060;-56
2021/03/20 00:14:14;;;;;;;34.20;17.65;;;;;;;-4.79;71.33;96221.03;4993455;28;20049;-55
2021/03/20 00:16:41;;;;;;;35.10;19.08;;;;;;;-4.77;71.13;96226.03;4996776;28;20041;-55
2021/03/20 00:19:09;;;;;;;61.78;27.08;;;;;;;-4.79;70.97;96223.59;5023266;28;20061;-54
2021/03/20 00:21:37;;;;;;;43.45;22.15;;;;;;;-4.86;71.33;96227.75;5017848;28;20044;-54
2021/03/20 00:24:05;;;;;;;37.80;20.67;;;;;;;-4.85;71.70;96228.53;5009787;28;20059;-55
2021/03/20 00:26:33;;;;;;;44.35;25.70;;;;;;;-4.90;72.22;96234.16;5009029;28;20052;-54
2021/03/20 00:29:00;;;;;;;33.90;20.58;;;;;;;-4.92;72.31;96237.84;4992252;28;20038;-54
2021/03/20 00:31:28;;;;;;;41.97;21.13;;;;;;;-4.95;71.95;96232.03;4970061;28;20053;-54
2021/03/20 00:33:56;;;;;;;34.55;19.45;;;;;;;-5.00;72.01;96234.25;5007870;28;20728;-54
2021/03/20 00:36:23;;;;;;;34.25;18.33;;;;;;;-5.03;72.06;96236.31;5007291;28;20084;-54
2021/03/20 00:39:05;;;;;;;29.95;19.77;;;;;;;-5.12;72.17;96236.25;5009097;28;20056;-54
2021/03/20 00:41:35;;;;;;;34.25;18.40;;;;;;;-5.14;72.78;96232.22;4976870;28;20061;-54
2021/03/20 00:44:03;;;;;;;27.95;17.15;;;;;;;-5.16;72.59;96234.91;4989618;28;20063;-54
2021/03/20 00:46:30;;;;;;;37.90;18.95;;;;;;;-5.15;72.58;96230.59;5016711;28;20042;-54
2021/03/20 00:48:57;;;;;;;29.13;20.13;;;;;;;-5.11;72.53;96237.06;5008866;28;20049;-54
2021/03/20 00:51:27;;;;;;;31.60;17.75;;;;;;;-5.10;72.42;96233.50;5017604;28;20534;-55
2021/03/20 00:53:58;;;;;;;28.25;18.63;;;;;;;-5.11;72.11;96234.50;5006843;28;20056;-55
2021/03/20 00:56:25;;;;;;;31.60;19.42;;;;;;;-5.17;72.12;96235.88;5017982;28;20044;-54
2021/03/20 00:58:52;;;;;;;28.48;18.35;;;;;;;-5.27;72.99;96235.97;5020573;28;20541;-54
2021/03/20 01:01:22;;;;;;;34.00;17.60;;;;;;;-5.27;72.66;96235.16;5018037;28;20050;-54
2021/03/20 01:03:50;;;;;;;25.88;17.10;;;;;;;-5.28;72.72;96236.94;4989742;28;20041;-55
2021/03/20 01:06:24;;;;;;;33.47;17.65;;;;;;;-5.28;72.92;96233.53;5019778;28;20405;-55
2021/03/20 01:08:53;;;;;;;38.00;17.80;;;;;;;-5.30;72.68;96235.47;4992513;28;20059;-54
2021/03/20 01:11:22;;;;;;;29.83;17.27;;;;;;;-5.31;72.87;96239.78;5005055;28;21040;-54
2021/03/20 01:13:49;;;;;;;30.10;17.08;;;;;;;-5.36;72.74;96234.31;5007333;28;20525;-54
2021/03/20 01:16:17;;;;;;;30.10;17.52;;;;;;;-5.35;72.97;96243.59;4987916;28;20957;-57
2021/03/20 01:18:46;;;;;;;40.92;22.35;;;;;;;-5.35;73.25;96238.47;5015175;28;20133;-54
2021/03/20 01:21:14;;;;;;;33.20;20.65;;;;;;;-5.33;73.89;96241.69;5000539;28;20037;-55
2021/03/20 01:23:41;;;;;;;37.67;20.60;;;;;;;-5.29;73.56;96239.66;5019695;28;20060;-55
2021/03/20 01:26:09;;;;;;;35.92;19.45;;;;;;;-5.32;73.03;96243.31;5014392;28;20129;-54
2021/03/20 01:28:39;;;;;;;39.67;21.80;;;;;;;-5.36;73.27;96242.00;5007921;28;20736;-54
2021/03/20 01:31:08;;;;;;;47.42;22.95;;;;;;;-5.40;73.36;96245.81;4991597;28;20057;-54
2021/03/20 01:33:35;;;;;;;43.22;22.52;;;;;;;-5.45;73.55;96238.56;5019257;28;20494;-55
2021/03/20 01:36:04;;;;;;;40.35;22.27;;;;;;;-5.48;73.51;96233.69;5002869;28;20049;-54
2021/03/20 01:38:32;;;;;;;42.88;24.38;;;;;;;-5.51;73.75;96243.47;5017374;28;20069;-54
2021/03/20 01:41:05;;;;;;;37.72;20.63;;;;;;;-5.57;73.33;96243.09;5006591;28;20060;-55
2021/03/20 01:43:34;;;;;;;36.38;22.27;;;;;;;-5.59;73.83;96241.63;5021540;28;20045;-55
2021/03/20 01:46:39;;;;;;;32.22;19.52;;;;;;;-5.60;74.31;96245.94;5015806;28;20037;-54
2021/03/20 01:49:34;;;;;;;41.22;24.25;;;;;;;-5.61;74.72;96246.09;5013673;28;20053;-55
2021/03/20 01:52:22;;;;;;;36.40;20.55;;;;;;;-5.64;74.56;96251.53;4993448;28;20422;-55
2021/03/20 01:55:00;;;;;;;40.30;23.08;;;;;;;-5.65;75.15;96253.31;5015121;28;20049;-54
2021/03/20 01:57:34;;;;;;;41.90;24.67;;;;;;;-5.68;75.36;96250.22;5018561;28;20061;-54
2021/03/20 02:00:24;;;;;;;31.17;19.38;;;;;;;-5.70;74.78;96255.50;4975001;28;20049;-55
2021/03/20 02:02:51;;;;;;;37.67;20.45;;;;;;;-5.73;74.47;96250.66;5020249;28;20057;-55
2021/03/20 02:05:26;;;;;;;31.75;18.38;;;;;;;-5.78;74.27;96248.50;5019809;28;20057;-55
2021/03/20 02:07:55;;;;;;;31.83;16.27;;;;;;;-5.85;74.42;96247.47;5001642;28;20045;-54
2021/03/20 02:10:27;;;;;;;36.75;20.08;;;;;;;-5.90;74.15;96249.66;4985358;28;20049;-54
2021/03/20 02:12:59;;;;;;;39.35;21.27;;;;;;;-6.07;74.60;96249.53;5017390;28;20061;-54
2021/03/20 02:15:31;;;;;;;38.80;20.98;;;;;;;-6.09;74.94;96260.91;4992529;28;20052;-54
2021/03/20 02:18:08;;;;;;;33.78;19.00;;;;;;;-6.13;75.45;96257.78;5010615;28;20049;-54
2021/03/20 02:20:50;;;;;;;44.95;22.13;;;;;;;-6.15;75.34;96257.09;5019627;28;20076;-58
2021/03/20 02:23:41;;;;;;;32.78;19.30;;;;;;;-6.21;75.77;96261.06;5021117;28;20050;-54
2021/03/20 02:26:46;;;;;;;35.40;19.67;;;;;;;-6.19;75.94;96266.06;4976400;28;20046;-54
2021/03/20 02:29:53;;;;;;;34.13;19.73;;;;;;;-6.17;75.92;96264.16;5016667;28;20049;-54
2021/03/20 02:32:46;;;;;;;33.63;18.73;;;;;;;-6.18;76.24;96260.78;5001783;28;20251;-54
2021/03/20 02:35:33;;;;;;;38.42;20.45;;;;;;;-6.16;76.23;96259.81;5015840;28;20572;-54
2021/03/20 02:38:03;;;;;;;34.50;20.05;;;;;;;-6.10;76.65;96264.41;5006728;28;20121;-54
2021/03/20 02:40:49;;;;;;;37.58;19.65;;;;;;;-6.10;76.80;96261.84;5011019;28;20053;-55
2021/03/20 02:43:45;;;;;;;41.28;21.15;;;;;;;-6.12;76.84;96264.53;5023024;28;20037;-55
2021/03/20 02:46:26;;;;;;;39.22;21.20;;;;;;;-6.10;76.52;96269.53;5012377;28;20041;-54
2021/03/20 02:49:05;;;;;;;41.25;23.48;;;;;;;-6.13;76.40;96267.25;5021104;28;20057;-54
2021/03/20 02:51:51;;;;;;;39.30;21.08;;;;;;;-6.15;76.83;96261.44;4997300;28;20054;-54
2021/03/20 02:54:27;;;;;;;34.55;20.05;;;;;;;-6.21;76.72;96263.63;5023868;28;20050;-54
2021/03/20 02:57:09;;;;;;;37.05;22.10;;;;;;;-6.21;76.71;96271.31;5019573;28;20053;-54
2021/03/20 02:59:45;;;;;;;41.22;21.42;;;;;;;-6.22;76.96;96277.44;4994171;28;20106;-56
2021/03/20 03:02:16;;;;;;;42.83;24.23;;;;;;;-6.21;76.79;96273.88;4995708;28;20060;-54
2021/03/20 03:04:58;;;;;;;41.67;24.30;;;;;;;-6.15;76.90;96282.00;5020038;28;20049;-54
2021/03/20 03:07:37;;;;;;;38.60;21.40;;;;;;;-6.17;76.74;96279.56;5003937;28;20053;-54
2021/03/20 03:10:10;;;;;;;35.88;21.55;;;;;;;-6.16;76.71;96280.38;5011346;28;20056;-54
2021/03/20 03:12:44;;;;;;;38.95;22.90;;;;;;;-6.15;77.06;96282.78;5015342;28;20053;-54
2021/03/20 03:15:17;;;;;;;39.13;22.77;;;;;;;-6.16;77.51;96281.19;4994593;28;20053;-54
2021/03/20 03:17:50;;;;;;;40.95;22.42;;;;;;;-6.19;77.47;96278.91;4994502;28;20050;-54
2021/03/20 03:20:23;;;;;;;39.72;22.42;;;;;;;-6.18;77.38;96283.09;4978599;28;20061;-55
2021/03/20 03:23:04;;;;;;;45.67;24.60;;;;;;;-6.22;77.41;96292.03;4994503;28;20049;-54
2021/03/20 03:25:36;;;;;;;44.13;23.92;;;;;;;-6.22;77.17;96292.03;4991868;28;20057;-54
2021/03/20 03:28:07;;;;;;;41.60;20.52;;;;;;;-6.26;76.88;96300.94;5000925;28;20056;-54
2021/03/20 03:30:36;;;;;;;39.97;23.42;;;;;;;-6.34;77.13;96294.75;5009139;28;20060;-54
2021/03/20 03:33:33;;;;;;;45.03;23.05;;;;;;;-6.37;77.58;96289.91;5002875;28;20100;-54
2021/03/20 03:36:07;;;;;;;39.65;23.10;;;;;;;-6.46;77.77;96295.88;4999247;28;20041;-54
2021/03/20 03:38:51;;;;;;;35.30;20.02;;;;;;;-6.47;77.44;96296.03;4994376;28;20702;-54
2021/03/20 03:41:25;;;;;;;36.58;20.42;;;;;;;-6.49;76.92;96301.28;5009614;28;20421;-54
2021/03/20 03:43:53;;;;;;;36.30;19.67;;;;;;;-6.52;77.33;96297.25;5010011;28;20056;-54
2021/03/20 03:46:24;;;;;;;37.55;21.65;;;;;;;-6.47;76.93;96306.28;5009916;28;20630;-54
2021/03/20 03:48:53;;;;;;;36.90;21.42;;;;;;;-6.50;76.75;96308.19;5006058;28;20616;-54
2021/03/20 03:51:21;;;;;;;40.60;20.73;;;;;;;-6.53;76.76;96311.03;4978029;28;20045;-54
2021/03/20 03:53:49;;;;;;;38.55;21.88;;;;;;;-6.53;77.07;96311.03;4990427;28;20049;-54
2021/03/20 03:56:38;;;;;;;40.40;22.92;;;;;;;-6.49;76.94;96309.81;5018729;28;20157;-55
2021/03/20 03:59:27;;;;;;;39.88;21.50;;;;;;;-6.49;77.07;96314.13;5009729;28;20057;-54
2021/03/20 04:02:06;;;;;;;37.90;19.75;;;;;;;-6.52;77.00;96312.66;5022112;28;20084;-53
2021/03/20 04:05:00;;;;;;;44.25;23.95;;;;;;;-6.58;77.09;96312.38;5009334;28;20056;-54
2021/03/20 04:07:55;;;;;;;46.15;24.77;;;;;;;-6.57;77.39;96317.38;5019967;28;20049;-54
2021/03/20 04:10:33;;;;;;;40.33;22.13;;;;;;;-6.59;77.64;96313.34;5023062;28;20049;-54
2021/03/20 04:13:10;;;;;;;48.95;26.10;;;;;;;-6.58;77.23;96320.88;4995722;28;20049;-54
2021/03/20 04:16:05;;;;;;;49.67;26.50;;;;;;;-6.50;76.69;96321.03;5020367;28;20071;-54
2021/03/20 04:19:03;;;;;;;44.97;26.35;;;;;;;-6.49;76.69;96322.63;5021581;28;20056;-54
2021/03/20 04:21:58;;;;;;;52.42;29.02;;;;;;;-6.50;76.92;96325.31;5023067;28;20061;-54
2021/03/20 04:24:47;;;;;;;47.63;26.60;;;;;;;-6.54;76.69;96322.22;4994538;28;20052;-55
2021/03/20 04:27:22;;;;;;;46.17;25.95;;;;;;;-6.54;76.80;96329.94;5008170;28;20061;-54
2021/03/20 04:29:58;;;;;;;;;;;;;;;-6.53;76.30;96334.13;4993891;28;20068;-54
2021/03/20 04:32:45;;;;;;;53.97;27.52;;;;;;;-6.57;77.04;96331.97;4994192;28;19929;-54
2021/03/20 04:35:21;;;;;;;55.58;28.23;;;;;;;-6.64;76.32;96337.63;5009561;28;20061;-54
2021/03/20 04:37:52;;;;;;;50.53;27.58;;;;;;;-6.60;76.69;96335.63;4984126;28;20771;-54
2021/03/20 04:40:42;;;;;;;57.63;28.77;;;;;;;-6.68;77.00;96331.19;5022246;28;20053;-55
2021/03/20 04:43:13;;;;;;;54.03;30.90;;;;;;;-6.69;78.21;96339.81;5020139;28;20045;-54
2021/03/20 04:45:47;;;;;;;58.47;28.35;;;;;;;-6.63;77.56;96343.59;4989237;28;20053;-55
2021/03/20 04:48:19;;;;;;;53.60;30.15;;;;;;;-6.64;77.00;96342.78;4991369;28;20060;-54
2021/03/20 04:50:54;;;;;;;50.78;29.08;;;;;;;-6.67;77.93;96344.81;4992391;28;20052;-54
2021/03/20 04:53:21;;;;;;;61.65;32.67;;;;;;;-6.69;78.65;96350.09;5016941;28;20421;-54
2021/03/20 04:55:54;;;;;;;61.53;31.98;;;;;;;-6.64;78.63;96347.09;5001470;28;20060;-54
2021/03/20 04:58:35;;;;;;;56.53;32.70;;;;;;;-6.57;78.84;96345.59;5001381;28;20053;-55
2021/03/20 05:01:15;;;;;;;58.67;29.27;;;;;;;-6.49;78.78;96358.56;5005344;28;20072;-54
2021/03/20 05:03:48;;;;;;;58.17;30.42;;;;;;;-6.35;78.31;96356.53;5015784;28;20049;-54
2021/03/20 05:06:21;;;;;;;57.15;33.45;;;;;;;-6.30;78.64;96356.09;5019667;28;20638;-54
2021/03/20 05:09:00;;;;;;;60.30;30.85;;;;;;;-6.23;78.56;96357.97;5015685;28;20457;-55
2021/03/20 05:11:41;;;;;;;51.38;29.25;;;;;;;-6.10;77.90;96362.78;5008833;28;20060;-54
2021/03/20 05:14:19;;;;;;;60.92;32.08;;;;;;;-6.01;77.10;96376.56;5017742;28;20046;-54
2021/03/20 05:16:48;;;;;;;51.67;27.65;;;;;;;-5.89;76.06;96374.59;5016079;28;20501;-54
2021/03/20 05:19:18;;;;;;;53.35;28.35;;;;;;;-5.82;75.18;96375.66;5008683;28;20064;-54
2021/03/20 05:21:50;;;;;;;50.90;27.42;;;;;;;-5.71;74.82;96378.03;5003688;28;20042;-53
2021/03/20 05:24:30;;;;;;;50.03;28.88;;;;;;;-5.71;74.50;96377.22;4993192;28;20045;-54
2021/03/20 05:26:59;;;;;;;51.80;31.13;;;;;;;-5.69;75.79;96379.66;5021682;28;20038;-54
2021/03/20 05:29:27;;;;;;;53.72;30.65;;;;;;;-5.72;76.05;96381.56;5007415;28;20228;-54
2021/03/20 05:31:56;;;;;;;54.90;31.17;;;;;;;-5.66;75.12;96376.81;5008490;28;20473;-54
2021/03/20 05:34:45;;;;;;;53.72;31.05;;;;;;;-5.59;75.01;96388.94;5008545;28;20057;-55
2021/03/20 05:37:21;;;;;;;52.67;28.00;;;;;;;-5.48;73.82;96389.72;5020054;28;20038;-55
2021/03/20 05:39:49;;;;;;;;;;;;;;;-5.48;73.35;96375.09;5018640;28;20053;-54
2021/03/20 05:42:39;;;;;;;53.00;26.92;;;;;;;-5.31;72.80;96388.94;5019239;28;19921;-55
2021/03/20 05:45:35;;;;;;;48.33;27.48;;;;;;;-5.29;72.19;96393.94;4999664;28;20045;-55
2021/03/20 05:48:22;;;;;;;51.28;29.40;;;;;;;-5.26;72.21;96399.63;4993795;28;20395;-55
2021/03/20 05:51:08;;;;;;;45.50;25.45;;;;;;;-5.21;72.16;96403.50;5018761;28;20052;-55
2021/03/20 05:53:54;;;;;;;48.60;28.98;;;;;;;-5.17;71.85;96404.84;4983820;28;20493;-54
2021/03/20 05:56:42;;;;;;;48.88;25.88;;;;;;;-5.16;71.73;96406.47;5022580;28;20049;-55
2021/03/20 05:59:28;;;;;;;48.10;25.95;;;;;;;-5.18;72.02;96404.03;5019095;28;20045;-54
2021/03/20 06:02:15;;;;;;;49.65;25.75;;;;;;;-5.12;71.76;96412.94;4983221;28;20698;-54
2021/03/20 06:05:05;;;;;;;48.47;27.23;;;;;;;-5.06;71.67;96407.19;5014482;28;20057;-55
2021/03/20 06:07:49;;;;;;;58.05;31.05;;;;;;;-4.97;72.06;96414.03;5015192;28;20421;-55
2021/03/20 06:10:49;;;;;;;51.53;30.35;;;;;;;-4.88;72.70;96409.00;5027624;28;20052;-55
2021/03/20 06:13:23;;;;;;;52.42;28.67;;;;;;;-4.84;72.38;96413.69;5005651;28;20417;-57
2021/03/20 06:16:25;;;;;;;52.97;30.17;;;;;;;-4.79;72.46;96420.97;5017712;28;20056;-54
2021/03/20 06:18:58;;;;;;;50.53;27.02;;;;;;;-4.76;72.55;96420.69;4983406;28;20052;-55
2021/03/20 06:21:49;;;;;;;45.97;27.73;;;;;;;-4.67;72.75;96424.13;5016987;28;20681;-54
2021/03/20 06:24:35;;;;;;;54.85;29.05;;;;;;;-4.59;73.11;96429.38;5024902;28;20494;-56
2021/03/20 06:27:16;;;;;;;48.10;28.00;;;;;;;-4.41;71.39;96433.69;5005617;28;20041;-54
2021/03/20 06:29:57;;;;;;;43.25;27.25;;;;;;;-4.28;71.44;96431.53;5023642;28;20053;-55
2021/03/20 06:32:34;;;;;;;51.00;30.45;;;;;;;-4.14;70.72;96437.94;5024595;28;20060;-55
2021/03/20 06:35:08;;;;;;;50.25;28.92;;;;;;;-3.98;70.38;96441.56;5013688;28;20053;-56
2021/03/20 06:37:39;;;;;;;43.60;26.52;;;;;;;-3.85;69.15;96441.97;4995530;28;20813;-55
2021/03/20 06:40:29;;;;;;;45.25;26.67;;;;;;;-3.73;69.65;96442.53;4989287;28;20057;-55
2021/03/20 06:42:58;;;;;;;47.00;30.83;;;;;;;-3.66;68.70;96443.53;5013766;28;20056;-57
2021/03/20 06:45:29;;;;;;;47.58;26.88;;;;;;;-3.57;68.99;96450.34;4980414;28;20041;-55
2021/03/20 06:48:05;;;;;;;49.60;28.23;;;;;;;-3.48;69.30;96447.84;5023969;28;20046;-55
2021/03/20 06:50:37;;;;;;;45.47;27.30;;;;;;;-3.38;68.62;96451.09;4998289;28;20056;-55
2021/03/20 06:53:06;;;;;;;40.78;26.88;;;;;;;-3.29;68.15;96439.06;5022330;28;20041;-55
2021/03/20 06:55:38;;;;;;;50.88;29.88;;;;;;;-3.13;67.61;96435.72;5004271;28;20046;-54
2021/03/20 06:58:19;;;;;;;50.70;30.85;;;;;;;-3.09;66.86;96448.16;5005614;28;20049;-55
2021/03/20 07:00:48;;;;;;;63.60;31.60;;;;;;;-3.08;66.48;96448.97;5018742;28;20059;-57
2021/03/20 07:04:06;;;;;;;48.05;30.10;;;;;;;-3.09;67.36;96450.72;5003580;28;20422;-55
2021/03/20 07:07:13;;;;;;;48.05;29.60;;;;;;;-3.06;67.42;96449.59;4985619;28;20056;-55
2021/03/20 07:09:50;;;;;;;56.55;29.60;;;;;;;-3.01;67.55;96449.13;4980170;28;20421;-55
2021/03/20 07:12:24;;;;;;;52.38;29.80;;;;;;;-3.01;67.15;96451.72;5023359;28;20168;-55
2021/03/20 07:14:53;;;;;;;48.15;30.27;;;;;;;-2.97;67.01;96445.28;5014099;28;20045;-55
2021/03/20 07:17:24;;;;;;;47.40;27.48;;;;;;;-2.90;66.74;96458.38;5012245;28;20038;-55
2021/03/20 07:20:05;;;;;;;45.05;28.38;;;;;;;-2.83;66.26;96451.63;5010880;28;20041;-55
2021/03/20 07:22:51;;;;;;;44.42;27.38;;;;;;;-2.84;66.49;96450.81;5024285;28;20054;-55
2021/03/20 07:25:38;;;;;;;43.33;27.70;;;;;;;-2.68;67.25;96456.97;4982776;28;20053;-54
2021/03/20 07:28:15;;;;;;;42.28;27.40;;;;;;;-2.57;66.22;96453.25;5021946;28;20139;-55
2021/03/20 07:30:51;;;;;;;43.95;27.55;;;;;;;-2.48;66.04;96452.34;4994281;28;20063;-55
2021/03/20 07:33:22;;;;;;;42.97;26.40;;;;;;;-2.32;65.41;96456.69;5014135;28;20095;-58
2021/03/20 07:35:50;;;;;;;46.38;26.95;;;;;;;-2.22;65.94;96467.69;5010808;28;20398;-62
2021/03/20 07:38:27;;;;;;;46.00;29.17;;;;;;;-2.14;67.51;96472.06;5019646;28;20045;-55
2021/03/20 07:41:11;;;;;;;48.72;26.50;;;;;;;-1.98;66.06;96471.22;5015597;28;20654;-55
2021/03/20 07:43:39;;;;;;;45.35;27.83;;;;;;;-1.83;67.06;96476.53;4996646;28;20052;-55
2021/03/20 07:46:10;;;;;;;40.05;25.70;;;;;;;-1.68;66.02;96487.06;5019607;28;20068;-55
2021/03/20 07:48:38;;;;;;;42.97;25.23;;;;;;;-1.54;66.08;96475.22;5019825;28;20041;-54
2021/03/20 07:51:12;;;;;;;35.35;23.45;;;;;;;-1.32;64.66;96476.31;5003068;28;21126;-55
2021/03/20 07:53:51;;;;;;;39.22;23.35;;;;;;;-1.21;63.29;96485.47;5015491;28;20061;-55
2021/03/20 07:56:36;;;;;;;35.70;21.85;;;;;;;-1.03;62.09;96487.03;5017052;28;20499;-55
2021/03/20 07:59:13;;;;;;;;;;;;;;;-0.82;61.06;96487.25;4998595;28;20128;-54
2021/03/20 08:01:41;;;;;;;29.83;20.70;;;;;;;-0.82;59.86;96491.66;5015411;28;20348;-55
2021/03/20 08:04:11;;;;;;;28.65;19.17;;;;;;;-0.84;59.83;96488.41;5021089;28;20049;-55
2021/03/20 08:06:49;;;;;;;33.10;21.40;;;;;;;-0.75;59.89;96486.59;5013923;28;20541;-55
2021/03/20 08:09:17;;;;;;;21.50;15.68;;;;;;;-0.48;57.56;96485.31;5012474;28;20045;-54
2021/03/20 08:11:46;;;;;;;26.25;18.05;;;;;;;-0.40;58.28;96490.44;5012810;28;20046;-54
2021/03/20 08:14:51;;;;;;;18.33;12.52;;;;;;;-0.18;56.65;96490.59;5007166;28;20060;-55
2021/03/20 08:17:20;;;;;;;17.02;11.65;;;;;;;0.05;55.86;96490.59;5022558;28;20164;-55
2021/03/20 08:19:49;;;;;;;20.20;14.13;;;;;;;0.13;55.42;96495.72;4994436;28;20053;-55
2021/03/20 08:22:41;;;;;;;21.00;12.73;;;;;;;0.15;53.77;96493.75;5012325;28;20065;-55
2021/03/20 08:25:48;;;;;;;16.38;11.73;;;;;;;0.23;53.90;96490.28;5020206;28;20056;-55
2021/03/20 08:28:33;;;;;;;19.35;13.63;;;;;;;0.30;54.58;96491.22;4954979;28;20555;-55
2021/03/20 08:31:14;;;;;;;19.13;12.10;;;;;;;0.35;54.03;96489.88;5016974;28;20049;-55
2021/03/20 08:33:56;;;;;;;18.92;12.88;;;;;;;0.47;52.97;96501.44;4993207;28;20052;-55
2021/03/20 08:36:49;;;;;;;18.02;12.30;;;;;;;0.37;52.09;96503.47;4996825;28;20530;-56
2021/03/20 08:39:45;;;;;;;18.17;13.27;;;;;;;0.42;52.21;96503.78;4992934;28;20041;-54
2021/03/20 08:42:27;;;;;;;20.70;13.13;;;;;;;0.40;52.00;96493.53;5002458;28;20060;-55
2021/03/20 08:45:28;;;;;;;15.35;10.80;;;;;;;0.41;50.74;96502.16;5020492;28;20476;-55
2021/03/20 08:48:17;;;;;;;16.52;12.30;;;;;;;0.39;50.98;96504.09;5021401;28;20045;-55
2021/03/20 08:51:06;;;;;;;15.90;11.57;;;;;;;0.45;50.93;96518.97;4991950;28;20046;-55
2021/03/20 08:53:58;;;;;;;16.58;12.25;;;;;;;0.41;50.84;96502.16;5010540;28;20053;-55
2021/03/20 08:56:44;;;;;;;15.45;10.93;;;;;;;0.54;50.86;96517.94;5009277;28;20606;-56
2021/03/20 08:59:17;;;;;;;13.50;9.95;;;;;;;0.66;49.05;96507.91;5010245;28;20049;-55
2021/03/20 09:01:49;;;;;;;14.82;10.38;;;;;;;0.67;48.75;96509.50;5021148;28;21782;-55
2021/03/20 09:04:24;;;;;;;14.27;9.32;;;;;;;0.47;48.46;96508.44;5024074;28;20049;-55
2021/03/20 09:07:07;;;;;;;13.05;9.95;;;;;;;0.32;49.06;96513.56;5022210;28;20081;-55
2021/03/20 09:09:40;;;;;;;14.93;10.77;;;;;;;0.33;50.00;96510.00;4977728;28;20052;-55
2021/03/20 09:12:13;;;;;;;14.82;10.73;;;;;;;0.30;48.50;96511.97;5019335;28;20075;-56
2021/03/20 09:14:43;;;;;;;16.75;11.57;;;;;;;0.23;48.62;96516.25;5007727;28;20057;-55
2021/03/20 09:17:32;;;;;;;16.20;10.68;;;;;;;0.33;49.10;96517.78;4997435;28;20473;-55
2021/03/20 09:20:20;;;;;;;14.52;9.85;;;;;;;0.46;49.40;96528.38;5011126;28;20669;-55
2021/03/20 09:22:50;;;;;;;15.63;11.70;;;;;;;0.44;48.54;96525.97;4973629;28;20427;-55
2021/03/20 09:25:29;;;;;;;14.95;10.95;;;;;;;0.35;49.69;96523.59;5009402;28;20056;-55
2021/03/20 09:27:59;;;;;;;14.20;10.30;;;;;;;0.30;48.67;96527.56;5011601;28;20037;-55
2021/03/20 09:30:34;;;;;;;11.45;9.00;;;;;;;0.19;49.06;96527.94;5011267;28;20080;-55
2021/03/20 09:33:06;;;;;;;14.02;11.30;;;;;;;0.18;48.88;96523.75;5008050;28;20053;-55
2021/03/20 09:35:43;;;;;;;16.92;9.95;;;;;;;0.23;48.83;96526.63;4994264;28;20045;-58
2021/03/20 09:38:10;;;;;;;15.40;10.30;;;;;;;0.28;49.11;96526.09;5018464;28;20048;-56
2021/03/20 09:40:51;;;;;;;14.93;11.20;;;;;;;0.41;49.02;96534.09;5011133;28;20041;-55
2021/03/20 09:43:47;;;;;;;12.25;10.20;;;;;;;0.33;48.65;96528.16;5009482;28;20072;-57
2021/03/20 09:46:27;;;;;;;15.85;9.55;;;;;;;0.42;48.81;96527.13;4987607;28;20060;-54
2021/03/20 09:48:56;;;;;;;15.13;10.57;;;;;;;0.54;48.89;96532.69;5022362;28;20063;-54
2021/03/20 09:51:45;;;;;;;14.93;9.68;;;;;;;0.72;47.96;96529.75;5018826;28;20057;-54
2021/03/20 09:54:22;;;;;;;15.60;9.68;;;;;;;0.69;47.13;96524.91;5009259;28;20727;-54
2021/03/20 09:56:56;;;;;;;14.70;10.77;;;;;;;0.55;48.24;96524.75;4992868;28;20057;-54
2021/03/20 09:59:26;;;;;;;12.90;10.75;;;;;;;0.59;47.17;96528.56;5007784;28;20057;-55
2021/03/20 10:01:56;;;;;;;13.02;10.13;;;;;;;0.83;48.05;96525.91;5022398;28;20717;-55
2021/03/20 10:04:35;;;;;;;13.40;10.48;;;;;;;1.00;47.94;96527.34;5005261;28;20056;-54
2021/03/20 10:07:24;;;;;;;15.32;11.20;;;;;;;1.25;47.49;96526.25;5021312;28;20057;-56
2021/03/20 10:09:54;;;;;;;13.75;9.88;;;;;;;1.30;46.06;96529.94;4932913;28;20690;-54
2021/03/20 10:12:35;;;;;;;15.85;9.68;;;;;;;1.29;46.41;96530.91;5001174;28;20060;-56
2021/03/20 10:15:03;;;;;;;13.23;9.77;;;;;;;1.38;46.30;96524.63;5009468;28;20042;-55
2021/03/20 10:17:52;;;;;;;15.57;10.68;;;;;;;1.56;46.18;96520.81;5005953;28;20755;-56
2021/03/20 10:20:21;;;;;;;14.13;10.20;;;;;;;1.64;44.86;96525.13;5003387;28;20541;-54
2021/03/20 10:22:59;;;;;;;13.13;10.13;;;;;;;1.55;45.48;96527.00;5011611;28;20045;-57
2021/03/20 10:25:29;;;;;;;13.35;9.95;;;;;;;1.78;45.18;96524.28;5014818;28;20054;-55
2021/03/20 10:28:08;;;;;;;18.40;9.82;;;;;;;1.94;45.04;96525.81;5011386;28;20544;-55
2021/03/20 10:30:38;;;;;;;14.13;9.65;;;;;;;1.67;44.35;96517.75;5007490;28;20478;-55
2021/03/20 10:33:07;;;;;;;12.75;9.68;;;;;;;1.28;45.15;96523.31;5008463;28;20164;-55
2021/03/20 10:35:37;;;;;;;13.63;9.90;;;;;;;1.39;44.31;96525.44;4998600;28;21013;-54
2021/03/20 10:38:23;;;;;;;13.57;10.07;;;;;;;1.49;44.56;96528.56;5017442;28;20409;-54
2021/03/20 10:40:58;;;;;;;17.17;11.73;;;;;;;1.44;45.16;96524.88;5017126;28;20045;-57
2021/03/20 10:43:26;;;;;;;13.45;11.20;;;;;;;1.52;45.23;96530.78;5000925;28;20075;-54
2021/03/20 10:45:56;;;;;;;15.65;11.68;;;;;;;1.53;44.57;96516.81;4990670;28;20041;-54
2021/03/20 10:48:28;;;;;;;15.32;11.75;;;;;;;1.51;44.50;96523.97;5010009;28;20052;-53
2021/03/20 10:51:07;;;;;;;17.83;11.55;;;;;;;1.58;43.70;96523.22;5011225;28;20045;-53
2021/03/20 10:54:15;;;;;;;15.05;11.80;;;;;;;1.52;44.19;96529.97;5021744;28;20056;-54
2021/03/20 10:56:45;;;;;;;15.55;11.25;;;;;;;1.52;44.33;96506.56;4947683;28;20060;-55
2021/03/20 10:59:30;;;;;;;16.20;12.20;;;;;;;1.64;44.68;96506.91;4964023;28;20057;-54
2021/03/20 11:02:32;;;;;;;12.20;10.13;;;;;;;1.82;45.65;96507.28;5021338;28;20056;-55
2021/03/20 11:05:20;;;;;;;15.75;10.55;;;;;;;2.09;43.47;96520.53;4984955;28;20437;-54
2021/03/20 11:07:49;;;;;;;16.58;11.18;;;;;;;2.11;43.59;96509.94;5011011;28;20052;-54
2021/03/20 11:10:29;;;;;;;15.00;11.02;;;;;;;2.28;43.36;96516.50;5018292;28;20060;-54
2021/03/20 11:13:05;;;;;;;16.20;12.48;;;;;;;2.28;42.53;96513.09;5022345;28;20060;-54
2021/03/20 11:15:39;;;;;;;13.88;10.48;;;;;;;2.34;42.74;96503.75;4996425;28;20919;-55
2021/03/20 11:18:14;;;;;;;15.82;11.60;;;;;;;2.40;42.40;96511.56;4992020;28;20061;-54
2021/03/20 11:20:45;;;;;;;14.63;10.82;;;;;;;2.56;42.44;96515.72;5023839;28;20038;-54
2021/03/20 11:23:40;;;;;;;16.85;11.32;;;;;;;2.73;42.34;96500.59;5009712;28;20084;-54
2021/03/20 11:26:23;;;;;;;16.40;10.15;;;;;;;2.80;42.69;96495.44;5005088;28;20076;-54
2021/03/20 11:28:52;;;;;;;17.80;11.60;;;;;;;2.95;42.13;96492.69;5024651;28;20370;-54
2021/03/20 11:31:22;;;;;;;15.68;10.35;;;;;;;3.01;41.69;96496.34;4996704;28;20060;-55
2021/03/20 11:33:50;;;;;;;13.52;9.98;;;;;;;2.96;41.93;96494.31;5022865;28;20409;-56
2021/03/20 11:36:23;;;;;;;14.25;10.68;;;;;;;2.81;41.69;96496.22;4996593;28;20056;-54
2021/03/20 11:38:51;;;;;;;18.38;10.70;;;;;;;2.65;41.75;96492.91;5017193;28;20394;-54
2021/03/20 11:41:23;;;;;;;11.68;9.98;;;;;;;2.73;41.32;96484.16;5019211;28;20045;-54
2021/03/20 11:43:56;;;;;;;15.38;10.05;;;;;;;2.67;41.86;96483.13;4992029;28;20045;-54
2021/03/20 11:46:28;;;;;;;17.08;11.30;;;;;;;2.72;42.45;96478.16;5020916;28;20532;-54
2021/03/20 11:49:03;;;;;;;17.23;11.60;;;;;;;2.82;41.55;96475.22;5008703;28;20049;-54
2021/03/20 11:51:44;;;;;;;14.57;10.93;;;;;;;2.79;41.21;96472.97;5023064;28;20405;-54
2021/03/20 11:54:29;;;;;;;16.05;9.30;;;;;;;2.98;40.95;96474.06;5022693;28;20050;-54
2021/03/20 11:57:21;;;;;;;13.97;10.63;;;;;;;3.13;41.15;96473.16;5021904;28;20060;-55
2021/03/20 11:59:49;;;;;;;13.82;10.60;;;;;;;3.15;41.12;96476.34;5020859;28;20050;-55
2021/03/20 12:02:23;;;;;;;13.30;9.45;;;;;;;2.99;40.99;96480.91;5019443;28;20060;-54
2021/03/20 12:05:18;;;;;;;12.90;9.82;;;;;;;2.86;41.25;96473.81;5002505;28;20049;-54
2021/03/20 12:07:46;;;;;;;14.73;10.27;;;;;;;2.87;40.79;96475.41;5007543;28;20041;-54
2021/03/20 12:10:25;;;;;;;11.50;9.10;;;;;;;2.63;40.23;96447.22;4993946;28;20046;-55